Time;durP1;ratioP1;P1;durP2;ratioP2;P2;SDS_P1;SDS_P2;PMS_P1;PMS_P2;Temp;Humidity;BMP_temperature;BMP_pressure;BME280_temperature;BME280_humidity;BME280_pressure;Samples;Min_cycle;Max_cycle;Signal;HPM_P1;HPM_P2
2021/12/25 18:09:34;;;;;;;9.37;7.17;;;5.90;83.40;;;;;;5141049;27;20761;-74
2021/12/25 18:12:00;;;;;;;20.87;10.37;;;5.90;83.50;;;;;;5121549;27;20176;-76
2021/12/25 18:14:26;;;;;;;23.43;11.17;;;5.90;83.50;;;;;;5136257;27;20550;-75
2021/12/25 18:16:52;;;;;;;18.23;10.30;;;6.00;83.30;;;;;;5135897;27;20180;-74
2021/12/25 18:19:17;;;;;;;16.97;9.00;;;6.00;83.80;;;;;;5138786;27;20673;-75
2021/12/25 18:21:43;;;;;;;14.87;8.87;;;6.10;83.20;;;;;;5131360;27;20958;-75
2021/12/25 18:24:09;;;;;;;11.23;7.83;;;6.10;82.80;;;;;;5139155;27;20184;-73
2021/12/25 18:26:35;;;;;;;16.20;9.37;;;6.20;83.30;;;;;;5139711;27;20291;-73
2021/12/25 18:29:00;;;;;;;15.30;8.57;;;6.30;82.90;;;;;;5139913;27;20999;-73
2021/12/25 18:31:26;;;;;;;16.03;8.77;;;6.30;82.50;;;;;;5120901;27;20665;-73
2021/12/25 18:33:53;;;;;;;19.93;9.30;;;6.30;82.40;;;;;;5142600;27;20259;-75
2021/12/25 18:36:19;;;;;;;13.77;8.83;;;6.30;82.00;;;;;;5129014;27;20207;-76
2021/12/25 18:38:45;;;;;;;14.87;8.40;;;6.40;81.80;;;;;;5138571;27;20180;-75
2021/12/25 18:41:12;;;;;;;16.07;9.13;;;6.40;81.60;;;;;;5139868;27;20251;-77
2021/12/25 18:43:39;;;;;;;20.70;9.80;;;6.40;81.90;;;;;;5143610;27;20185;-74
2021/12/25 18:46:05;;;;;;;17.80;8.27;;;6.20;83.00;;;;;;5139098;27;20268;-75
2021/12/25 18:48:30;;;;;;;13.53;7.57;;;6.20;82.80;;;;;;5130686;27;20294;-73
2021/12/25 18:50:57;;;;;;;10.43;7.07;;;6.20;82.30;;;;;;5136447;27;20185;-74
2021/12/25 18:53:23;;;;;;;11.40;7.83;;;6.20;82.00;;;;;;5134696;27;20184;-74
2021/12/25 18:55:49;;;;;;;19.07;7.37;;;6.20;82.90;;;;;;5131996;27;20188;-73
2021/12/25 18:58:15;;;;;;;12.23;7.57;;;6.20;82.50;;;;;;5134469;27;20257;-72
2021/12/25 19:00:50;;;;;;;15.83;6.87;;;6.20;82.60;;;;;;5139251;27;20704;-73
2021/12/25 19:03:17;;;;;;;9.90;6.50;;;6.20;82.40;;;;;;5132660;27;20577;-74
2021/12/25 19:05:43;;;;;;;13.90;6.63;;;6.20;82.20;;;;;;5139134;27;20737;-73
2021/12/25 19:08:10;;;;;;;9.90;7.03;;;6.10;82.70;;;;;;5135785;27;20589;-73
2021/12/25 19:10:37;;;;;;;12.93;6.13;;;6.20;82.60;;;;;;5128977;27;20185;-73
2021/12/25 19:13:03;;;;;;;12.03;7.40;;;6.20;82.60;;;;;;5129390;27;20177;-75
2021/12/25 19:15:29;;;;;;;11.67;8.13;;;6.10;82.80;;;;;;5134452;27;20195;-75
2021/12/25 19:17:55;;;;;;;14.27;8.33;;;6.00;82.80;;;;;;5123017;27;20174;-75
2021/12/25 19:20:24;;;;;;;11.83;7.00;;;5.90;83.50;;;;;;5119547;27;20207;-75
2021/12/25 19:22:51;;;;;;;14.97;8.27;;;5.80;83.50;;;;;;5133240;27;20232;-75
2021/12/25 19:25:18;;;;;;;13.00;7.43;;;5.80;83.70;;;;;;5117012;27;20210;-74
2021/12/25 19:27:45;;;;;;;10.03;6.80;;;5.80;84.00;;;;;;5114220;27;20197;-75
2021/12/25 19:30:14;;;;;;;13.50;7.87;;;5.80;84.10;;;;;;5122263;27;20264;-74
2021/12/25 19:32:40;;;;;;;14.03;8.07;;;5.80;83.80;;;;;;5102737;27;20185;-75
2021/12/25 19:35:07;;;;;;;14.00;7.50;;;5.70;84.40;;;;;;5120953;27;20185;-75
2021/12/25 19:37:32;;;;;;;7.83;6.17;;;5.70;84.40;;;;;;5116322;27;20186;-75
2021/12/25 19:39:58;;;;;;;15.77;7.57;;;5.70;84.50;;;;;;5106644;27;20185;-75
2021/12/25 19:42:24;;;;;;;13.77;8.60;;;5.80;84.30;;;;;;5123906;27;20185;-73
2021/12/25 19:44:53;;;;;;;7.77;5.80;;;5.70;84.90;;;;;;5124455;27;20189;-74
2021/12/25 19:47:19;;;;;;;7.70;5.80;;;5.70;84.50;;;;;;5116884;27;20181;-74
2021/12/25 19:49:45;;;;;;;11.43;5.77;;;5.80;84.00;;;;;;5121916;27;20176;-74
2021/12/25 19:52:11;;;;;;;13.10;6.90;;;5.90;83.90;;;;;;5121182;27;20208;-74
2021/12/25 19:54:38;;;;;;;16.23;8.00;;;5.90;84.20;;;;;;5116060;27;20753;-74
2021/12/25 19:57:05;;;;;;;16.80;8.97;;;5.90;84.00;;;;;;5109685;27;20208;-74
2021/12/25 19:59:33;;;;;;;22.90;9.43;;;5.90;84.10;;;;;;5119523;27;20181;-74
2021/12/25 20:02:00;;;;;;;14.57;8.90;;;5.90;84.20;;;;;;5116774;27;20177;-74
2021/12/25 20:04:26;;;;;;;20.27;8.07;;;5.90;84.30;;;;;;5117892;27;20189;-74
2021/12/25 20:06:52;;;;;;;17.10;8.13;;;5.90;84.00;;;;;;5117090;27;20556;-75
2021/12/25 20:09:19;;;;;;;9.60;7.33;;;5.90;84.10;;;;;;5123870;27;20215;-75
2021/12/25 20:11:45;;;;;;;10.47;7.47;;;5.90;83.70;;;;;;5096431;27;20616;-75
2021/12/25 20:14:11;;;;;;;11.53;6.33;;;5.90;83.30;;;;;;5116448;27;20181;-75
2021/12/25 20:16:37;;;;;;;10.93;7.00;;;5.90;83.10;;;;;;5120392;27;20181;-74
2021/12/25 20:19:06;;;;;;;6.93;5.37;;;5.80;84.00;;;;;;5119303;27;20191;-74
2021/12/25 20:21:32;;;;;;;9.10;7.00;;;5.80;84.10;;;;;;5117360;27;20184;-74
2021/12/25 20:23:59;;;;;;;13.87;8.33;;;5.70;84.00;;;;;;5120116;27;20620;-74
2021/12/25 20:26:27;;;;;;;19.80;8.73;;;5.70;84.10;;;;;;5109129;27;20177;-74
2021/12/25 20:28:53;;;;;;;16.93;8.50;;;5.70;84.90;;;;;;5119489;27;20649;-74
2021/12/25 20:31:20;;;;;;;15.27;9.50;;;5.70;84.70;;;;;;5118831;27;20181;-74
2021/12/25 20:33:47;;;;;;;14.00;7.97;;;5.60;84.50;;;;;;5123594;27;20189;-74
2021/12/25 20:36:13;;;;;;;17.37;8.37;;;5.60;84.60;;;;;;5116148;27;20206;-74
2021/12/25 20:38:43;;;;;;;16.57;8.93;;;5.60;84.60;;;;;;5116983;27;20271;-74
2021/12/25 20:41:10;;;;;;;11.93;8.20;;;5.60;84.60;;;;;;5134168;27;20265;-75
2021/12/25 20:43:42;;;;;;;10.23;7.97;;;5.50;84.60;;;;;;5119918;27;20187;-75
2021/12/25 20:46:08;;;;;;;14.17;8.27;;;5.40;84.90;;;;;;5101827;27;20192;-75
2021/12/25 20:48:36;;;;;;;13.97;7.97;;;5.40;85.00;;;;;;5119463;27;20219;-75
2021/12/25 20:51:11;;;;;;;17.23;8.93;;;5.30;85.10;;;;;;5119075;27;20185;-75
2021/12/25 20:53:45;;;;;;;13.00;8.57;;;5.20;85.10;;;;;;5119568;27;20176;-76
2021/12/25 20:56:13;;;;;;;13.93;8.20;;;5.20;85.40;;;;;;5116141;27;20205;-76
2021/12/25 20:58:40;;;;;;;13.07;7.40;;;5.20;85.60;;;;;;5117668;27;20181;-74
2021/12/25 21:01:07;;;;;;;21.33;11.05;;;5.20;85.50;;;;;;5115116;27;20421;-73
2021/12/25 21:03:33;;;;;;;20.57;11.37;;;5.00;86.50;;;;;;5112955;27;20187;-74
2021/12/25 21:05:59;;;;;;;19.37;10.77;;;5.00;86.50;;;;;;5122526;27;20238;-74
2021/12/25 21:08:25;;;;;;;18.50;11.17;;;5.00;86.50;;;;;;5101588;27;20676;-74
2021/12/25 21:10:53;;;;;;;22.67;11.53;;;5.00;86.60;;;;;;5102737;27;20182;-74
2021/12/25 21:13:20;;;;;;;21.90;11.70;;;5.00;87.00;;;;;;5115355;27;20266;-74
2021/12/25 21:15:46;;;;;;;21.77;11.33;;;5.00;87.00;;;;;;5120605;27;20804;-74
2021/12/25 21:18:11;;;;;;;29.97;12.70;;;5.00;87.60;;;;;;5116103;27;20173;-74
2021/12/25 21:20:37;;;;;;;18.73;11.57;;;5.00;87.40;;;;;;5120177;27;20185;-75
2021/12/25 21:23:04;;;;;;;23.50;11.43;;;5.00;87.80;;;;;;5114923;27;20185;-76
2021/12/25 21:25:31;;;;;;;16.33;10.50;;;5.00;87.30;;;;;;5120681;27;20754;-74
2021/12/25 21:27:57;;;;;;;16.97;10.33;;;5.00;87.60;;;;;;5118375;27;20219;-74
2021/12/25 21:30:24;;;;;;;20.10;9.60;;;5.00;87.70;;;;;;5121118;27;20205;-74
2021/12/25 21:32:52;;;;;;;17.07;9.57;;;5.00;87.10;;;;;;5122345;27;20559;-73
2021/12/25 21:35:19;;;;;;;18.47;9.63;;;5.00;87.20;;;;;;5103028;27;20240;-73
2021/12/25 21:37:46;;;;;;;14.23;9.37;;;5.00;87.00;;;;;;5117905;27;21027;-73
2021/12/25 21:40:13;;;;;;;16.97;9.70;;;5.10;87.40;;;;;;5123294;27;20184;-73
2021/12/25 21:42:40;;;;;;;18.87;9.30;;;5.20;87.10;;;;;;5121076;27;20267;-75
2021/12/25 21:45:07;;;;;;;16.00;7.93;;;5.10;87.40;;;;;;5121755;27;20658;-74
2021/12/25 21:47:34;;;;;;;18.60;9.17;;;5.20;87.00;;;;;;5119484;27;20201;-74
2021/12/25 21:50:00;;;;;;;10.00;7.80;;;5.20;87.10;;;;;;5122540;27;20196;-74
2021/12/25 21:52:26;;;;;;;13.33;8.73;;;5.30;87.00;;;;;;5120580;27;20603;-73
2021/12/25 21:54:51;;;;;;;11.13;6.67;;;5.30;86.90;;;;;;5123185;27;20270;-74
2021/12/25 21:57:17;;;;;;;14.73;8.37;;;5.40;86.40;;;;;;5103036;27;20263;-73
2021/12/25 21:59:43;;;;;;;13.17;8.43;;;5.40;86.60;;;;;;5121519;27;20264;-74
2021/12/25 22:02:09;;;;;;;12.97;6.97;;;5.40;86.50;;;;;;5120489;27;20172;-74
2021/12/25 22:04:42;;;;;;;18.07;9.13;;;5.40;86.40;;;;;;5123919;27;21052;-74
2021/12/25 22:07:11;;;;;;;14.43;8.77;;;5.40;86.60;;;;;;5099855;28;20267;-74
2021/12/25 22:09:45;;;;;;;14.07;7.13;;;5.40;86.50;;;;;;5105009;28;20224;-73
2021/12/25 22:12:11;;;;;;;13.57;8.33;;;5.40;86.30;;;;;;5102567;28;20184;-74
2021/12/25 22:14:37;;;;;;;18.73;8.50;;;5.30;87.00;;;;;;5121324;28;20199;-74
2021/12/25 22:17:04;;;;;;;14.73;7.67;;;5.30;86.90;;;;;;5103063;28;20181;-74
2021/12/25 22:19:30;;;;;;;12.73;8.63;;;5.40;86.60;;;;;;5121082;28;20237;-74
2021/12/25 22:21:56;;;;;;;14.13;9.23;;;5.40;86.50;;;;;;5120240;28;20397;-74
2021/12/25 22:24:22;;;;;;;12.17;8.03;;;5.40;86.40;;;;;;5121352;28;20226;-74
2021/12/25 22:26:47;;;;;;;14.23;8.00;;;5.40;86.20;;;;;;5123861;28;20180;-74
2021/12/25 22:29:13;;;;;;;13.60;7.43;;;5.40;86.20;;;;;;5112945;28;20214;-74
2021/12/25 22:31:39;;;;;;;17.63;9.10;;;5.40;86.00;;;;;;5115996;28;20634;-75
2021/12/25 22:34:05;;;;;;;16.70;8.87;;;5.30;86.10;;;;;;5115617;28;20209;-74
2021/12/25 22:36:32;;;;;;;10.90;7.53;;;5.30;86.50;;;;;;5121721;28;20188;-74
2021/12/25 22:38:58;;;;;;;15.53;8.63;;;5.30;86.70;;;;;;5136716;27;20176;-73
2021/12/25 22:41:24;;;;;;;15.27;7.57;;;5.20;86.70;;;;;;5123320;28;20220;-74
2021/12/25 22:43:50;;;;;;;13.00;8.20;;;5.20;86.90;;;;;;5120984;28;20177;-74
2021/12/25 22:46:17;;;;;;;9.13;7.50;;;5.20;87.00;;;;;;5121394;28;20245;-74
2021/12/25 22:48:43;;;;;;;13.93;7.40;;;5.20;87.10;;;;;;5104730;28;20216;-73
2021/12/25 22:51:08;;;;;;;15.13;8.33;;;5.30;86.90;;;;;;5120074;28;20185;-73
2021/12/25 22:53:37;;;;;;;14.90;8.37;;;5.20;87.20;;;;;;5119327;28;20177;-76
2021/12/25 22:56:03;;;;;;;10.67;7.30;;;5.20;87.20;;;;;;5106099;27;20255;-75
2021/12/25 22:58:29;;;;;;;13.17;7.70;;;5.20;87.00;;;;;;5128451;27;20574;-76
2021/12/25 23:00:57;;;;;;;10.33;7.07;;;5.20;87.00;;;;;;5123574;27;20187;-75
2021/12/25 23:03:24;;;;;;;10.27;6.70;;;5.20;87.00;;;;;;5125375;27;20192;-76
2021/12/25 23:05:50;;;;;;;7.50;5.50;;;5.20;87.20;;;;;;5124504;27;20223;-77
2021/12/25 23:08:21;;;;;;;8.47;5.83;;;5.20;87.10;;;;;;5125226;27;20547;-75
2021/12/25 23:10:57;;;;;;;14.73;6.53;;;5.20;87.20;;;;;;5124689;27;20630;-75
2021/12/25 23:13:23;;;;;;;13.00;7.30;;;5.20;87.10;;;;;;5120913;27;20184;-75
2021/12/25 23:15:50;;;;;;;8.40;6.07;;;5.20;87.00;;;;;;5127300;27;20173;-75
2021/12/25 23:18:17;;;;;;;11.23;6.70;;;5.30;87.00;;;;;;5127100;27;20185;-74
2021/12/25 23:20:46;;;;;;;8.43;6.00;;;5.30;86.80;;;;;;5122336;27;20169;-74
2021/12/25 23:23:12;;;;;;;9.90;5.63;;;5.30;86.80;;;;;;5120067;27;20264;-75
2021/12/25 23:25:38;;;;;;;13.90;6.67;;;5.40;86.60;;;;;;5125931;27;20181;-74
2021/12/25 23:28:05;;;;;;;9.03;6.17;;;5.40;86.50;;;;;;5126024;27;20223;-75
2021/12/25 23:30:32;;;;;;;6.90;5.20;;;5.40;86.40;;;;;;5125037;27;20189;-74
2021/12/25 23:32:58;;;;;;;11.87;7.00;;;5.40;86.60;;;;;;5124135;27;20181;-75
2021/12/25 23:35:26;;;;;;;10.60;5.90;;;5.40;86.70;;;;;;5124256;27;20742;-75
2021/12/25 23:37:52;;;;;;;9.80;6.60;;;5.40;86.50;;;;;;5099789;27;20185;-74
2021/12/25 23:40:18;;;;;;;10.00;6.07;;;5.40;86.60;;;;;;5126216;27;20174;-74
2021/12/25 23:42:49;;;;;;;9.87;5.93;;;5.40;86.60;;;;;;5122464;27;20206;-74
2021/12/25 23:45:24;;;;;;;8.33;6.23;;;5.40;86.40;;;;;;5121781;27;20181;-75
2021/12/25 23:47:52;;;;;;;12.73;6.80;;;5.50;86.20;;;;;;5123792;27;20639;-74
2021/12/25 23:50:19;;;;;;;6.53;5.63;;;5.50;86.20;;;;;;5120473;27;20177;-75
2021/12/25 23:52:48;;;;;;;7.60;5.83;;;5.50;86.20;;;;;;5124026;27;20185;-75
2021/12/25 23:55:14;;;;;;;9.80;5.60;;;5.50;86.60;;;;;;5125644;27;20227;-75
2021/12/25 23:57:41;;;;;;;6.40;5.73;;;5.50;86.40;;;;;;5124676;27;20196;-74
